createdAt,value
2023-03-27T00:00:42.395Z,99032.50
2023-03-27T00:04:54.710Z,99032.75
2023-03-27T00:08:56.897Z,99038.63
2023-03-27T00:12:59.562Z,99033.28
2023-03-27T00:17:02.857Z,99031.84
2023-03-27T00:21:05.350Z,99033.38
2023-03-27T00:25:08.569Z,99026.72
2023-03-27T00:29:13.456Z,99032.81
2023-03-27T00:33:15.848Z,99025.38
2023-03-27T00:37:18.154Z,99022.03
2023-03-27T00:41:21.654Z,99021.50
2023-03-27T00:45:28.886Z,99011.75
2023-03-27T00:49:35.609Z,99016.06
2023-03-27T00:53:37.769Z,99008.59
2023-03-27T00:57:42.245Z,99003.50
2023-03-27T01:01:45.711Z,98996.25
2023-03-27T01:05:50.074Z,98988.16
2023-03-27T01:09:52.493Z,98983.31
2023-03-27T01:14:36.629Z,98998.97
2023-03-27T01:18:54.287Z,98994.28
2023-03-27T01:23:35.934Z,99011.03
2023-03-27T01:28:02.888Z,99024.38
2023-03-27T01:32:24.203Z,99027.94
2023-03-27T01:36:43.061Z,99010.31
2023-03-27T01:40:56.854Z,99022.00
2023-03-27T01:45:12.128Z,99021.09
2023-03-27T01:49:39.994Z,99019.41
2023-03-27T01:53:56.684Z,99025.63
2023-03-27T01:58:03.223Z,99035.63
2023-03-27T02:02:13.437Z,99026.69
2023-03-27T02:06:23.884Z,99031.88
2023-03-27T02:10:32.682Z,99038.00
2023-03-27T02:14:46.262Z,99038.44
2023-03-27T02:19:11.469Z,99029.88
2023-03-27T02:23:13.998Z,99025.19
2023-03-27T02:27:31.284Z,99028.13
2023-03-27T02:31:52.181Z,99027.50
2023-03-27T02:36:11.176Z,99034.28
2023-03-27T02:40:16.531Z,99034.72
2023-03-27T02:44:46.449Z,99034.25
2023-03-27T02:48:54.126Z,99033.00
2023-03-27T02:53:00.159Z,99031.47
2023-03-27T02:57:10.603Z,99027.91
2023-03-27T03:01:42.227Z,99029.66
2023-03-27T03:05:44.794Z,99033.16
2023-03-27T03:09:46.865Z,99032.34
2023-03-27T03:13:48.865Z,99024.69
2023-03-27T03:17:51.479Z,99028.41
2023-03-27T03:21:53.791Z,99033.03
2023-03-27T03:25:56.997Z,99030.44
2023-03-27T03:30:09.464Z,99027.84
2023-03-27T03:34:34.809Z,99023.50
2023-03-27T03:38:38.108Z,99023.84
2023-03-27T03:42:49.962Z,99018.94
2023-03-27T03:46:54.416Z,99024.63
2023-03-27T03:50:56.999Z,99029.72
2023-03-27T03:54:59.322Z,99023.25
2023-03-27T03:59:01.618Z,99031.03
2023-03-27T04:03:05.736Z,99036.38
2023-03-27T04:07:09.892Z,99031.28
2023-03-27T04:11:18.770Z,99032.53
2023-03-27T04:15:40.827Z,99037.94
2023-03-27T04:19:54.195Z,99043.47
2023-03-27T04:24:02.330Z,99039.09
2023-03-27T04:28:16.946Z,99042.88
2023-03-27T04:32:26.309Z,99049.25
2023-03-27T04:36:57.650Z,99057.53
2023-03-27T04:41:01.701Z,99065.81
2023-03-27T04:45:04.490Z,99082.94
2023-03-27T04:49:06.664Z,99072.16
2023-03-27T04:53:31.140Z,99062.78
2023-03-27T04:57:35.124Z,99066.44
2023-03-27T05:01:37.246Z,99068.44
2023-03-27T05:06:05.372Z,99066.91
2023-03-27T05:10:08.115Z,99074.09
2023-03-27T05:14:11.333Z,99075.41
2023-03-27T05:18:16.672Z,99080.63
2023-03-27T05:22:21.778Z,99078.00
2023-03-27T05:26:32.767Z,99081.03
2023-03-27T05:30:35.412Z,99076.19
2023-03-27T05:34:54.635Z,99083.47
2023-03-27T05:38:58.657Z,99082.59
2023-03-27T05:43:07.379Z,99089.56
2023-03-27T05:47:10.958Z,99086.44
2023-03-27T05:51:13.291Z,99092.72
2023-03-27T05:55:15.807Z,99090.53
2023-03-27T05:59:19.268Z,99095.38
2023-03-27T06:03:24.921Z,99102.06
2023-03-27T06:07:39.088Z,99110.34
2023-03-27T06:11:42.940Z,99121.31
2023-03-27T06:15:45.274Z,99129.25
2023-03-27T06:20:10.874Z,99135.59
2023-03-27T06:24:13.084Z,99139.50
2023-03-27T06:28:15.385Z,99144.78
2023-03-27T06:32:22.199Z,99150.94
2023-03-27T06:36:28.917Z,99158.66
2023-03-27T06:40:35.180Z,99163.59
2023-03-27T06:44:37.284Z,99174.38
2023-03-27T06:49:04.620Z,99195.16
2023-03-27T06:53:19.696Z,99206.16
2023-03-27T06:57:25.973Z,99229.53
2023-03-27T07:01:31.688Z,99245.63
2023-03-27T07:06:06.295Z,99250.63
2023-03-27T07:10:23.002Z,99259.97
2023-03-27T07:14:25.000Z,99266.59
2023-03-27T07:18:27.211Z,99271.09
2023-03-27T07:22:31.065Z,99278.78
2023-03-27T07:26:39.735Z,99283.03
2023-03-27T07:30:47.271Z,99290.09
2023-03-27T07:34:56.284Z,99302.06
2023-03-27T07:39:17.070Z,99301.31
2023-03-27T07:43:19.555Z,99314.91
2023-03-27T07:47:21.995Z,99309.34
2023-03-27T07:51:24.967Z,99310.41
2023-03-27T07:55:29.679Z,99326.25
2023-03-27T07:59:41.748Z,99327.72
2023-03-27T08:03:50.733Z,99337.69
2023-03-27T08:07:54.617Z,99351.00
2023-03-27T08:12:15.686Z,99353.28
2023-03-27T08:16:27.857Z,99353.56
2023-03-27T08:20:31.673Z,99363.31
2023-03-27T08:24:34.331Z,99365.16
2023-03-27T08:28:43.640Z,99371.56
2023-03-27T08:32:46.367Z,99386.75
2023-03-27T08:36:49.609Z,99391.84
2023-03-27T08:40:54.619Z,99390.09
2023-03-27T08:45:27.901Z,99393.00
2023-03-27T08:49:39.934Z,99391.63
2023-03-27T08:54:27.436Z,99399.75
2023-03-27T08:58:33.049Z,99403.13
2023-03-27T09:02:48.498Z,99399.97
2023-03-27T09:07:01.773Z,99404.47
2023-03-27T09:11:45.160Z,99411.47
2023-03-27T09:16:00.739Z,99415.75
2023-03-27T09:20:19.945Z,99420.25
2023-03-27T09:24:56.813Z,99427.91
2023-03-27T09:29:25.937Z,99440.97
2023-03-27T09:33:41.512Z,99429.56
2023-03-27T09:37:44.886Z,99437.03
2023-03-27T09:41:51.075Z,99440.66
2023-03-27T09:45:56.653Z,99455.13
2023-03-27T09:50:11.894Z,99454.75
2023-03-27T09:54:32.066Z,99459.13
2023-03-27T09:58:45.921Z,99466.16
2023-03-27T10:02:48.070Z,99481.72
2023-03-27T10:07:00.129Z,99489.38
2023-03-27T10:11:24.865Z,99492.28
2023-03-27T10:15:35.165Z,99491.28
2023-03-27T10:19:42.116Z,99492.81
2023-03-27T10:23:49.788Z,99495.50
2023-03-27T10:28:18.604Z,99503.41
2023-03-27T10:32:49.692Z,99499.13
2023-03-27T10:37:28.423Z,99512.66
2023-03-27T10:41:49.374Z,99519.56
2023-03-27T10:45:54.794Z,99507.41
2023-03-27T10:50:09.717Z,99509.06
2023-03-27T10:54:51.214Z,99504.84
2023-03-27T10:59:00.479Z,99518.81
2023-03-27T11:03:23.874Z,99511.75
2023-03-27T11:07:46.672Z,99522.13
2023-03-27T11:12:09.479Z,99517.41
2023-03-27T11:16:25.584Z,99521.25
2023-03-27T11:20:51.852Z,99523.81
2023-03-27T11:25:29.843Z,99519.31
2023-03-27T11:29:58.856Z,99531.34
2023-03-27T11:34:12.987Z,99516.38
2023-03-27T11:38:28.764Z,99528.72
2023-03-27T11:42:36.845Z,99528.00
2023-03-27T11:47:01.239Z,99535.34
2023-03-27T11:51:36.902Z,99532.16
2023-03-27T11:56:17.593Z,99520.88
2023-03-27T12:00:39.270Z,99518.84
2023-03-27T12:05:00.479Z,99517.91
2023-03-27T12:09:22.146Z,99518.56
2023-03-27T12:14:17.711Z,99514.25
2023-03-27T12:19:13.731Z,99513.78
2023-03-27T12:24:15.365Z,99523.91
2023-03-27T12:29:22.670Z,99527.06
2023-03-27T12:33:56.106Z,99531.44
2023-03-27T12:38:03.181Z,99535.06
2023-03-27T12:42:14.517Z,99538.72
2023-03-27T12:46:25.182Z,99546.38
2023-03-27T12:50:34.457Z,99534.53
2023-03-27T12:54:39.147Z,99547.31
2023-03-27T12:59:12.392Z,99560.53
2023-03-27T13:03:48.651Z,99564.81
2023-03-27T13:19:45.758Z,99559.25
2023-03-27T13:24:38.376Z,99564.56
2023-03-27T13:29:20.511Z,99572.69
2023-03-27T13:34:57.172Z,99576.69
2023-03-27T13:39:59.598Z,99592.41
2023-03-27T13:45:00.611Z,99597.91
2023-03-27T14:09:39.936Z,99636.34
2023-03-27T14:14:34.469Z,99649.22
2023-03-27T14:18:55.827Z,99658.34
2023-03-27T14:23:15.103Z,99655.97
2023-03-27T14:27:49.189Z,99671.66
2023-03-27T14:31:53.541Z,99667.84
2023-03-27T14:36:06.762Z,99675.59
2023-03-27T14:40:30.685Z,99676.69
2023-03-27T14:44:36.309Z,99696.28
2023-03-27T14:48:51.285Z,99731.00
2023-03-27T14:52:57.784Z,99719.56
2023-03-27T14:57:09.207Z,99738.69
2023-03-27T15:01:18.609Z,99742.59
2023-03-27T15:05:26.518Z,99758.22
2023-03-27T15:09:37.313Z,99753.59
2023-03-27T15:13:57.511Z,99751.47
2023-03-27T15:18:22.421Z,99771.94
2023-03-27T15:22:32.044Z,99782.44
2023-03-27T15:26:35.411Z,99799.53
2023-03-27T15:30:44.964Z,99811.34
2023-03-27T15:34:51.196Z,99815.03
2023-03-27T15:38:58.498Z,99823.56
2023-03-27T15:43:14.042Z,99821.63
2023-03-27T15:47:25.005Z,99839.03
2023-03-27T15:51:29.906Z,99837.66
2023-03-27T15:55:47.693Z,99845.53
2023-03-27T15:59:52.871Z,99846.19
2023-03-27T16:04:01.720Z,99853.44
2023-03-27T16:08:05.310Z,99859.03
2023-03-27T16:12:11.033Z,99874.03
2023-03-27T16:16:24.079Z,99883.16
2023-03-27T16:20:26.047Z,99893.91
2023-03-27T16:24:27.981Z,99894.19
2023-03-27T16:28:30.573Z,99907.72
2023-03-27T16:32:32.612Z,99922.47
2023-03-27T16:36:35.566Z,99917.28
2023-03-27T16:40:37.485Z,99936.63
2023-03-27T16:44:39.616Z,99939.69
2023-03-27T16:48:41.812Z,99952.00
2023-03-27T16:52:43.821Z,99957.88
2023-03-27T16:56:46.167Z,99964.09
2023-03-27T17:00:48.450Z,99969.81
2023-03-27T17:04:50.536Z,99978.59
2023-03-27T17:08:55.440Z,99987.19
2023-03-27T17:12:57.964Z,100002.28
2023-03-27T17:16:59.614Z,99999.38
2023-03-27T17:21:01.974Z,100009.13
2023-03-27T17:25:06.251Z,100019.78
2023-03-27T17:29:10.227Z,100021.38
2023-03-27T17:33:13.330Z,100017.69
2023-03-27T17:37:16.897Z,100031.84
2023-03-27T17:41:20.177Z,100037.16
2023-03-27T17:45:23.896Z,100045.19
2023-03-27T17:49:25.922Z,100042.28
2023-03-27T17:53:29.103Z,100052.94
2023-03-27T17:57:30.841Z,100066.63
2023-03-27T18:01:33.326Z,100070.28
2023-03-27T18:05:40.977Z,100065.38
2023-03-27T18:09:43.158Z,100079.44
2023-03-27T18:13:51.192Z,100074.78
2023-03-27T18:17:53.380Z,100094.69
2023-03-27T18:21:55.662Z,100094.13
2023-03-27T18:25:57.866Z,100097.34
2023-03-27T18:29:59.845Z,100110.22
2023-03-27T18:34:02.997Z,100121.19
2023-03-27T18:38:05.754Z,100117.53
2023-03-27T18:42:08.684Z,100123.69
2023-03-27T18:46:16.488Z,100138.94
2023-03-27T18:50:18.738Z,100136.84
2023-03-27T18:54:21.130Z,100142.44
2023-03-27T18:58:29.597Z,100138.84
2023-03-27T19:02:32.253Z,100137.94
2023-03-27T19:06:36.181Z,100144.09
2023-03-27T19:10:39.099Z,100154.84
2023-03-27T19:15:00.439Z,100152.03
2023-03-27T19:19:06.158Z,100160.97
2023-03-27T19:23:14.276Z,100157.66
2023-03-27T19:27:23.919Z,100161.25
2023-03-27T19:31:28.217Z,100157.56
2023-03-27T19:35:33.106Z,100171.94
2023-03-27T19:39:35.135Z,100160.81
2023-03-27T19:43:37.361Z,100178.19
2023-03-27T19:47:39.436Z,100175.81
2023-03-27T19:51:41.812Z,100174.53
2023-03-27T19:55:46.723Z,100184.00
2023-03-27T19:59:48.694Z,100174.56
2023-03-27T20:03:50.391Z,100184.16
2023-03-27T20:07:52.421Z,100184.38
2023-03-27T20:11:54.901Z,100199.16
2023-03-27T20:15:58.033Z,100197.44
2023-03-27T20:20:00.793Z,100201.28
2023-03-27T20:24:05.710Z,100210.28
2023-03-27T20:28:12.660Z,100204.38
2023-03-27T20:32:16.759Z,100207.66
2023-03-27T20:36:22.929Z,100207.31
2023-03-27T20:40:27.834Z,100219.97
2023-03-27T20:44:35.460Z,100212.13
2023-03-27T20:48:41.566Z,100214.91
2023-03-27T20:52:46.771Z,100218.34
2023-03-27T20:56:48.831Z,100211.81
2023-03-27T21:00:52.860Z,100212.56
2023-03-27T21:04:54.888Z,100217.19
2023-03-27T21:08:56.889Z,100217.56
2023-03-27T21:12:59.627Z,100219.59
2023-03-27T21:17:02.147Z,100212.69
2023-03-27T21:21:04.857Z,100222.94
2023-03-27T21:25:07.317Z,100215.91
2023-03-27T21:29:12.426Z,100209.19
2023-03-27T21:33:15.887Z,100215.53
2023-03-27T21:37:17.910Z,100220.59
2023-03-27T21:41:20.289Z,100216.28
2023-03-27T21:45:22.313Z,100224.31
2023-03-27T21:49:25.589Z,100217.41
2023-03-27T21:53:28.004Z,100215.00
2023-03-27T21:57:29.950Z,100211.78
2023-03-27T22:01:32.143Z,100199.66
2023-03-27T22:05:38.035Z,100214.47
2023-03-27T22:09:39.986Z,100213.03
2023-03-27T22:13:43.394Z,100208.63
2023-03-27T22:17:46.395Z,100210.38
2023-03-27T22:21:48.395Z,100211.34
2023-03-27T22:25:54.420Z,100214.94
2023-03-27T22:29:56.461Z,100211.66
2023-03-27T22:33:58.373Z,100219.38
2023-03-27T22:38:01.363Z,100221.25
2023-03-27T22:42:03.351Z,100220.09
2023-03-27T22:46:06.373Z,100224.50
2023-03-27T22:50:08.867Z,100215.19
2023-03-27T22:54:10.818Z,100216.03
2023-03-27T22:58:12.680Z,100204.13
2023-03-27T23:02:14.702Z,100206.63
2023-03-27T23:06:22.058Z,100208.47
2023-03-27T23:10:23.989Z,100209.41
2023-03-27T23:14:26.088Z,100222.25
2023-03-27T23:18:28.009Z,100230.66
2023-03-27T23:22:29.616Z,100235.41
2023-03-27T23:26:31.618Z,100244.03
2023-03-27T23:30:33.558Z,100244.84
2023-03-27T23:34:35.669Z,100250.91
2023-03-27T23:38:37.805Z,100256.16
2023-03-27T23:42:39.723Z,100253.66
2023-03-27T23:46:41.858Z,100258.75
2023-03-27T23:50:45.314Z,100264.91
2023-03-27T23:54:47.239Z,100261.44
2023-03-27T23:58:49.170Z,100263.44
